Time;durP1;ratioP1;P1;durP2;ratioP2;P2;SDS_P1;SDS_P2;PMS_P1;PMS_P2;Temp;Humidity;BMP_temperature;BMP_pressure;BME280_temperature;BME280_humidity;BME280_pressure;Samples;Min_cycle;Max_cycle;Signal;HPM_P1;HPM_P2
2022/01/16 00:01:34;;;;;;;5.85;2.33;;;30.00;99.90;;;;;;4968492;28;20034;-75
2022/01/16 00:04:09;;;;;;;6.18;1.95;;;30.00;99.90;;;;;;4970721;28;20023;-75
2022/01/16 00:06:42;;;;;;;3.40;1.75;;;30.20;99.90;;;;;;4973432;28;20033;-74
2022/01/16 00:09:10;;;;;;;1.98;1.40;;;30.10;99.90;;;;;;4972247;28;20053;-75
2022/01/16 00:11:38;;;;;;;3.08;2.10;;;30.20;99.90;;;;;;4965506;28;20030;-74
2022/01/16 00:14:06;;;;;;;2.25;2.05;;;30.50;99.90;;;;;;4972329;28;20549;-76
2022/01/16 00:16:34;;;;;;;3.30;2.03;;;30.90;99.90;;;;;;4971742;28;20063;-75
2022/01/16 00:19:02;;;;;;;3.38;1.58;;;30.90;99.90;;;;;;4972492;28;20086;-75
2022/01/16 00:21:40;;;;;;;2.75;2.15;;;31.00;99.90;;;;;;4971801;28;21657;-76
2022/01/16 00:24:09;;;;;;;3.05;1.45;;;31.30;99.90;;;;;;4971354;28;20042;-78
2022/01/16 00:26:37;;;;;;;4.00;1.60;;;32.00;99.50;;;;;;4978219;28;20039;-76
2022/01/16 00:29:09;;;;;;;2.22;1.42;;;32.20;99.70;;;;;;4968541;28;20118;-74
2022/01/16 00:31:38;;;;;;;4.35;1.77;;;31.90;99.50;;;;;;4986583;28;20038;-75
2022/01/16 00:34:07;;;;;;;4.35;1.48;;;31.40;99.20;;;;;;4980608;28;20043;-75
2022/01/16 00:36:34;;;;;;;2.03;1.20;;;31.00;98.90;;;;;;4971649;28;20019;-75
2022/01/16 00:39:03;;;;;;;4.97;1.90;;;30.60;99.90;;;;;;4971462;28;20112;-74
2022/01/16 00:41:32;;;;;;;2.75;1.80;;;30.60;99.90;;;;;;4977201;28;20023;-75
2022/01/16 00:43:59;;;;;;;3.40;1.90;;;31.20;99.90;;;;;;4971137;28;20069;-75
2022/01/16 00:46:26;;;;;;;3.55;1.80;;;31.80;99.90;;;;;;4976251;28;20035;-75
2022/01/16 00:48:54;;;;;;;2.53;1.27;;;32.30;98.30;;;;;;4971866;28;20390;-76
2022/01/16 00:51:21;;;;;;;3.88;1.10;;;32.90;99.30;;;;;;4979759;28;20031;-76
2022/01/16 00:53:49;;;;;;;2.95;1.58;;;32.80;98.20;;;;;;4971266;28;20058;-75
2022/01/16 00:56:16;;;;;;;4.53;1.60;;;32.60;97.00;;;;;;4973924;28;20023;-75
2022/01/16 00:58:44;;;;;;;2.35;1.40;;;33.00;98.50;;;;;;4969281;28;20089;-75
2022/01/16 01:01:12;;;;;;;3.60;1.77;;;33.60;98.30;;;;;;4972934;28;20031;-74
2022/01/16 01:03:39;;;;;;;2.20;1.80;;;34.00;97.20;;;;;;4971674;28;20055;-75
2022/01/16 01:06:07;;;;;;;3.63;1.50;;;34.40;96.50;;;;;;4982422;28;20023;-76
2022/01/16 01:08:36;;;;;;;1.80;1.48;;;34.80;96.40;;;;;;4976885;28;20222;-76
2022/01/16 01:11:08;;;;;;;2.50;1.60;;;34.60;96.20;;;;;;4982337;28;20040;-76
2022/01/16 01:13:55;;;;;;;4.47;1.63;;;34.10;96.10;;;;;;4972113;28;20035;-76
2022/01/16 01:16:24;;;;;;;2.42;1.40;;;33.50;96.40;;;;;;4971445;28;20347;-75
2022/01/16 01:18:52;;;;;;;3.03;1.58;;;32.70;95.70;;;;;;4973197;28;20354;-74
2022/01/16 01:21:29;;;;;;;4.63;2.65;;;32.40;97.10;;;;;;4971126;28;20049;-74
2022/01/16 01:23:58;;;;;;;3.65;1.85;;;32.40;97.10;;;;;;4969030;28;20077;-82
2022/01/16 01:26:32;;;;;;;6.68;2.45;;;32.30;97.40;;;;;;4980423;28;20046;-80
2022/01/16 01:28:59;;;;;;;2.78;2.00;;;32.40;97.80;;;;;;4971723;28;20170;-80
2022/01/16 01:31:30;;;;;;;3.72;1.48;;;32.80;95.70;;;;;;4981894;28;20034;-77
2022/01/16 01:33:58;;;;;;;5.15;1.40;;;33.50;97.70;;;;;;4981820;28;20073;-78
2022/01/16 01:36:26;;;;;;;3.58;1.73;;;33.90;95.80;;;;;;4971358;28;20089;-82
2022/01/16 01:38:53;;;;;;;4.15;1.52;;;34.40;95.50;;;;;;4970452;28;20039;-79
2022/01/16 01:41:20;;;;;;;1.70;1.27;;;34.40;94.70;;;;;;4987299;28;20023;-80
2022/01/16 01:52:03;;;;;;;2.65;1.20;;;33.90;95.20;;;;;;4974189;28;19917;-80
2022/01/16 01:54:31;;;;;;;3.42;1.67;;;33.30;95.40;;;;;;4970973;28;20085;-82
2022/01/16 01:56:58;;;;;;;2.90;1.70;;;32.90;95.00;;;;;;4991833;28;20018;-78
2022/01/16 01:59:26;;;;;;;3.55;1.77;;;32.30;95.20;;;;;;4972820;28;20026;-83
2022/01/16 02:01:53;;;;;;;4.95;1.73;;;32.00;96.00;;;;;;4972616;28;20478;-83
2022/01/16 02:04:20;;;;;;;5.55;2.58;;;32.60;95.60;;;;;;4977057;28;20031;-82
2022/01/16 02:06:48;;;;;;;2.90;1.70;;;33.20;95.30;;;;;;4970905;28;20062;-83
2022/01/16 02:09:15;;;;;;;3.53;2.30;;;33.20;95.30;;;;;;4969906;28;20027;-81
2022/01/16 02:11:44;;;;;;;2.85;1.33;;;33.00;95.90;;;;;;4976556;28;20022;-83
2022/01/16 02:14:30;;;;;;;3.42;1.60;;;32.90;95.70;;;;;;4970281;28;20046;-80
2022/01/16 02:36:12;;;;;;;4.80;2.92;;;35.00;93.60;;;;;;4966734;28;20046;-80
2022/01/16 02:38:39;;;;;;;5.15;2.30;;;35.10;93.50;;;;;;4957358;28;20030;-84
2022/01/16 02:41:06;;;;;;;3.85;2.35;;;35.40;93.70;;;;;;4992292;28;20030;-83
2022/01/16 02:43:35;;;;;;;5.45;2.42;;;35.80;92.40;;;;;;4984084;28;20431;-85
2022/01/16 02:48:43;;;;;;;3.72;2.33;;;35.50;92.00;;;;;;4974111;28;20031;-82
2022/01/16 02:51:15;;;;;;;4.50;2.38;;;35.70;92.90;;;;;;4973351;28;20061;-85
2022/01/16 02:53:43;;;;;;;6.82;3.55;;;36.00;93.00;;;;;;4971548;28;20122;-87
2022/01/16 02:56:11;;;;;;;6.53;3.53;;;36.40;93.40;;;;;;4967157;28;20403;-86
2022/01/16 02:58:38;;;;;;;10.52;4.10;;;36.20;92.60;;;;;;4961975;28;20038;-84
2022/01/16 03:01:06;;;;;;;6.20;4.25;;;35.50;93.20;;;;;;4972178;28;20092;-86
2022/01/16 03:03:33;;;;;;;7.88;4.05;;;34.60;93.70;;;;;;4970971;28;20093;-84
2022/01/16 03:06:01;;;;;;;5.78;4.32;;;33.80;93.90;;;;;;4973101;28;20027;-82
2022/01/16 03:08:28;;;;;;;5.18;3.90;;;33.20;94.50;;;;;;4970343;28;20023;-83
2022/01/16 03:13:32;;;;;;;9.00;4.22;;;32.80;95.40;;;;;;4972224;28;20030;-83
2022/01/16 03:16:00;;;;;;;7.20;3.72;;;32.60;95.30;;;;;;4978483;28;20045;-85
2022/01/16 03:23:39;;;;;;;;;;;32.00;96.00;;;;;;4972849;28;20045;-80
2022/01/16 03:26:07;;;;;;;5.70;3.97;;;31.80;96.00;;;;;;4974838;28;19914;-81
2022/01/16 03:28:34;;;;;;;4.47;3.92;;;31.60;96.40;;;;;;4969886;28;20209;-83
2022/01/16 03:31:02;;;;;;;7.28;3.80;;;31.50;96.80;;;;;;4970674;28;20019;-83
2022/01/16 03:33:29;;;;;;;5.00;3.53;;;31.40;96.80;;;;;;4970648;28;20027;-87
2022/01/16 03:35:57;;;;;;;7.22;3.95;;;31.10;97.00;;;;;;4970899;28;20126;-79
2022/01/16 03:38:24;;;;;;;6.85;3.80;;;30.70;97.60;;;;;;4967653;28;20086;-83
2022/01/16 03:40:51;;;;;;;5.63;3.90;;;30.70;98.10;;;;;;4980596;28;20102;-81
2022/01/16 03:43:19;;;;;;;7.20;4.32;;;30.70;98.10;;;;;;4969783;28;20018;-80
2022/01/16 03:45:47;;;;;;;8.68;4.43;;;30.80;97.60;;;;;;4970965;28;20070;-82
2022/01/16 03:48:16;;;;;;;4.10;3.22;;;30.90;97.80;;;;;;4969092;28;20031;-84
2022/01/16 03:50:44;;;;;;;6.35;3.95;;;30.90;97.60;;;;;;4971381;28;20042;-80
2022/01/16 03:53:11;;;;;;;6.13;3.75;;;31.10;97.50;;;;;;4968446;28;20070;-83
2022/01/16 03:55:38;;;;;;;6.28;2.88;;;31.90;97.30;;;;;;4976015;28;20474;-79
2022/01/16 03:58:06;;;;;;;5.68;3.20;;;32.80;96.30;;;;;;4984569;28;20031;-82
2022/01/16 04:00:34;;;;;;;6.00;2.97;;;33.30;95.60;;;;;;4979299;28;20031;-84
2022/01/16 04:03:01;;;;;;;8.90;4.20;;;33.80;95.00;;;;;;4981527;28;20042;-84
2022/01/16 04:05:29;;;;;;;7.88;3.65;;;34.20;96.10;;;;;;4978420;28;20083;-79
2022/01/16 04:07:58;;;;;;;8.70;3.47;;;34.40;94.30;;;;;;4971989;28;20362;-78
2022/01/16 04:10:25;;;;;;;5.07;3.45;;;34.30;93.80;;;;;;4970958;28;20038;-78
2022/01/16 04:12:53;;;;;;;12.18;3.78;;;34.10;93.90;;;;;;4969633;28;20069;-83
2022/01/16 04:17:48;;;;;;;8.10;3.45;;;33.60;94.00;;;;;;4980900;28;20599;-83
2022/01/16 04:20:16;;;;;;;7.18;4.43;;;33.70;94.20;;;;;;4973099;28;20042;-79
2022/01/16 04:22:45;;;;;;;6.38;4.03;;;33.90;94.20;;;;;;4989253;28;20048;-86
2022/01/16 04:25:13;;;;;;;7.10;3.28;;;34.00;94.20;;;;;;4970292;28;20047;-83
2022/01/16 04:27:41;;;;;;;7.35;3.22;;;34.10;94.90;;;;;;4973847;28;20371;-84
2022/01/16 04:30:09;;;;;;;5.45;2.75;;;34.50;93.70;;;;;;4984795;28;20035;-75
2022/01/16 04:32:37;;;;;;;5.03;3.42;;;34.80;94.00;;;;;;4970676;28;20022;-84
2022/01/16 04:35:05;;;;;;;7.78;2.97;;;35.00;93.60;;;;;;4982128;28;20038;-84
2022/01/16 04:37:33;;;;;;;7.13;3.80;;;35.10;93.20;;;;;;4969423;28;20150;-83
2022/01/16 04:40:02;;;;;;;5.43;2.83;;;35.30;93.50;;;;;;4985064;28;20176;-82
2022/01/16 04:45:15;;;;;;;8.55;3.25;;;34.40;93.00;;;;;;4972742;28;20038;-76
2022/01/16 04:47:43;;;;;;;6.40;2.90;;;33.90;93.50;;;;;;4992236;28;20084;-76
2022/01/16 04:50:13;;;;;;;5.70;3.22;;;33.40;93.60;;;;;;4972505;28;20120;-79
2022/01/16 04:52:42;;;;;;;6.63;2.90;;;33.00;94.20;;;;;;4981337;28;20118;-76
2022/01/16 04:55:11;;;;;;;5.70;2.83;;;32.60;95.10;;;;;;4977840;28;20022;-79
2022/01/16 04:57:39;;;;;;;5.47;3.25;;;32.40;95.00;;;;;;4992540;28;20081;-78
2022/01/16 05:00:10;;;;;;;7.10;3.42;;;32.30;95.10;;;;;;4980671;28;20039;-75
2022/01/16 05:02:37;;;;;;;5.30;3.08;;;32.60;94.80;;;;;;4983262;28;20458;-76
2022/01/16 05:05:05;;;;;;;7.55;3.75;;;32.80;94.30;;;;;;4972293;28;20034;-77
2022/01/16 05:07:33;;;;;;;4.85;3.13;;;32.90;94.80;;;;;;4971440;28;20093;-79
2022/01/16 05:10:00;;;;;;;7.30;2.95;;;33.30;94.50;;;;;;4981913;28;20058;-77
2022/01/16 05:12:33;;;;;;;5.95;3.03;;;33.50;93.80;;;;;;4993783;28;20038;-77
2022/01/16 05:17:47;;;;;;;8.77;3.50;;;34.00;94.00;;;;;;4978659;28;20521;-77
2022/01/16 05:20:14;;;;;;;5.88;3.10;;;34.10;94.00;;;;;;4971345;28;20031;-75
2022/01/16 05:22:41;;;;;;;7.07;2.63;;;34.10;93.30;;;;;;4973640;28;20030;-79
2022/01/16 05:25:12;;;;;;;4.05;3.22;;;34.10;92.90;;;;;;4972747;28;20043;-76
2022/01/16 05:27:39;;;;;;;4.57;2.80;;;33.80;93.30;;;;;;4974466;28;20110;-81
2022/01/16 05:30:08;;;;;;;6.55;2.85;;;33.80;93.70;;;;;;4969106;28;20363;-77
2022/01/16 05:32:36;;;;;;;5.18;3.00;;;34.00;93.10;;;;;;4973561;28;20457;-78
2022/01/16 05:35:03;;;;;;;7.18;2.90;;;33.90;93.10;;;;;;4968235;28;20042;-78
2022/01/16 05:37:31;;;;;;;3.42;2.55;;;33.80;93.10;;;;;;4981349;28;20048;-80
2022/01/16 05:39:58;;;;;;;7.25;3.13;;;33.60;92.90;;;;;;4971331;28;20056;-77
2022/01/16 05:42:25;;;;;;;7.60;2.75;;;33.60;93.40;;;;;;4970310;28;20027;-77
2022/01/16 05:44:53;;;;;;;6.57;2.80;;;33.70;93.20;;;;;;4967244;28;20031;-78
2022/01/16 05:47:20;;;;;;;5.13;2.63;;;33.80;93.20;;;;;;4969662;28;20097;-75
2022/01/16 05:49:47;;;;;;;4.57;3.08;;;33.90;93.70;;;;;;4966507;28;20105;-77
2022/01/16 05:52:15;;;;;;;14.07;9.27;;;33.80;93.70;;;;;;4970588;28;20027;-75
2022/01/16 05:54:42;;;;;;;7.75;3.80;;;33.80;93.60;;;;;;4968791;28;20041;-75
2022/01/16 05:57:10;;;;;;;4.43;2.65;;;33.60;93.40;;;;;;4979104;28;20160;-75
2022/01/16 05:59:37;;;;;;;4.18;2.25;;;33.60;93.50;;;;;;4974578;28;20041;-77
2022/01/16 06:02:05;;;;;;;5.70;2.80;;;33.50;93.30;;;;;;4972720;28;20567;-77
2022/01/16 06:04:32;;;;;;;4.80;2.47;;;33.50;93.70;;;;;;4974164;28;20080;-77
2022/01/16 06:07:00;;;;;;;4.57;2.50;;;33.30;93.80;;;;;;4973002;28;20026;-76
2022/01/16 06:09:28;;;;;;;8.48;2.35;;;33.20;94.00;;;;;;4968416;28;20015;-75
2022/01/16 06:11:57;;;;;;;5.05;2.17;;;33.00;94.00;;;;;;4971718;28;20386;-75
2022/01/16 06:14:25;;;;;;;6.18;2.38;;;32.80;93.90;;;;;;4966991;28;20335;-76
2022/01/16 06:16:54;;;;;;;5.40;2.33;;;32.60;94.30;;;;;;4972035;28;20338;-80
2022/01/16 06:19:21;;;;;;;6.95;2.40;;;32.50;94.50;;;;;;4965308;28;20039;-77
2022/01/16 06:21:49;;;;;;;4.32;2.47;;;32.40;94.90;;;;;;4971268;28;20269;-77
2022/01/16 06:24:17;;;;;;;7.20;2.35;;;32.20;94.60;;;;;;4970399;28;20414;-78
2022/01/16 06:26:44;;;;;;;5.95;2.95;;;32.10;95.00;;;;;;4981534;28;20030;-77
2022/01/16 06:29:12;;;;;;;7.95;2.80;;;32.00;95.30;;;;;;4975736;28;20069;-76
2022/01/16 06:31:39;;;;;;;6.75;4.03;;;31.70;95.40;;;;;;4970578;28;20157;-77
2022/01/16 06:34:07;;;;;;;6.47;3.08;;;31.40;95.90;;;;;;4966063;28;20462;-76
2022/01/16 06:36:36;;;;;;;10.35;3.47;;;31.30;95.80;;;;;;4974347;28;20101;-77
2022/01/16 06:39:06;;;;;;;7.05;2.33;;;31.30;95.90;;;;;;4972021;28;21706;-76
2022/01/16 06:41:34;;;;;;;10.45;2.95;;;31.30;96.00;;;;;;4972982;28;20381;-76
2022/01/16 06:44:01;;;;;;;6.72;2.28;;;31.00;96.00;;;;;;4973834;28;20026;-80
2022/01/16 06:46:29;;;;;;;6.40;2.90;;;30.90;96.40;;;;;;4976913;28;20474;-78
2022/01/16 06:48:56;;;;;;;5.65;2.85;;;30.80;96.40;;;;;;4970880;28;20034;-76
2022/01/16 06:51:24;;;;;;;8.30;2.17;;;30.80;96.40;;;;;;4971188;28;20065;-82
2022/01/16 06:53:54;;;;;;;9.25;3.30;;;30.80;96.50;;;;;;4970047;28;21337;-75
2022/01/16 06:56:22;;;;;;;6.90;2.65;;;30.90;96.50;;;;;;4970050;28;20100;-79
2022/01/16 06:58:49;;;;;;;10.68;4.55;;;30.70;96.50;;;;;;4970244;28;20046;-75
2022/01/16 07:01:17;;;;;;;7.43;2.15;;;30.40;96.90;;;;;;4972341;28;20061;-76
2022/01/16 07:03:45;;;;;;;5.03;2.85;;;30.40;97.00;;;;;;4974829;28;20042;-79
2022/01/16 07:06:12;;;;;;;8.18;2.67;;;30.30;97.10;;;;;;4973031;28;20097;-77
2022/01/16 07:08:39;;;;;;;4.55;1.73;;;30.20;97.30;;;;;;4972570;28;20037;-77
2022/01/16 07:11:07;;;;;;;7.57;2.20;;;30.10;97.70;;;;;;4972972;28;20520;-77
2022/01/16 07:13:35;;;;;;;6.40;2.97;;;30.00;97.70;;;;;;4963655;28;20038;-77
2022/01/16 07:16:03;;;;;;;6.57;2.75;;;29.80;97.90;;;;;;4973768;28;20129;-77
2022/01/16 07:18:30;;;;;;;7.97;2.72;;;29.80;98.30;;;;;;4970605;28;20169;-76
2022/01/16 07:20:58;;;;;;;5.65;2.00;;;29.70;98.30;;;;;;4969107;28;20595;-76
2022/01/16 07:23:25;;;;;;;5.50;2.08;;;29.70;98.40;;;;;;4966639;28;20058;-77
2022/01/16 07:25:53;;;;;;;10.45;3.03;;;29.60;98.50;;;;;;4974257;28;20046;-77
2022/01/16 07:28:22;;;;;;;9.85;2.55;;;29.40;98.70;;;;;;4972476;28;20023;-75
2022/01/16 07:30:49;;;;;;;8.88;2.28;;;29.20;98.70;;;;;;4974337;28;20035;-75
2022/01/16 07:33:17;;;;;;;8.13;2.00;;;29.00;98.90;;;;;;4969444;28;20039;-75
2022/01/16 07:35:44;;;;;;;10.95;3.05;;;29.00;98.90;;;;;;4974718;28;20019;-75
2022/01/16 07:38:11;;;;;;;8.30;2.30;;;28.90;99.00;;;;;;4970610;28;20147;-74
2022/01/16 07:40:39;;;;;;;6.80;2.63;;;28.60;99.40;;;;;;4969786;28;20050;-74
2022/01/16 07:43:06;;;;;;;7.35;3.30;;;28.70;99.60;;;;;;4971376;28;20034;-74
2022/01/16 07:45:34;;;;;;;5.40;2.42;;;28.60;99.80;;;;;;4973964;28;20033;-74
2022/01/16 07:48:02;;;;;;;10.60;3.00;;;28.50;99.80;;;;;;4965604;28;20030;-75
2022/01/16 07:50:29;;;;;;;5.63;2.15;;;28.50;99.80;;;;;;4974098;28;20374;-75
2022/01/16 07:52:56;;;;;;;9.75;2.53;;;28.40;99.90;;;;;;4966146;28;20057;-74
2022/01/16 07:55:26;;;;;;;13.77;3.65;;;28.30;99.90;;;;;;4965832;28;20121;-74
2022/01/16 07:57:58;;;;;;;8.45;2.10;;;28.30;99.90;;;;;;4970427;28;20026;-75
2022/01/16 08:00:26;;;;;;;13.65;2.90;;;28.20;99.90;;;;;;4966263;28;20031;-73
2022/01/16 08:02:54;;;;;;;8.23;2.28;;;28.10;99.90;;;;;;4966274;28;20070;-74
2022/01/16 08:05:22;;;;;;;15.20;2.60;;;28.00;99.90;;;;;;4974322;28;20670;-74
2022/01/16 08:07:52;;;;;;;5.15;1.83;;;28.00;99.90;;;;;;4971901;28;20152;-74
2022/01/16 08:10:20;;;;;;;6.75;2.03;;;28.00;99.90;;;;;;4971209;28;20620;-74
2022/01/16 08:12:47;;;;;;;6.75;1.80;;;27.90;99.90;;;;;;4970080;28;20018;-76
2022/01/16 08:15:14;;;;;;;8.40;2.05;;;27.80;99.90;;;;;;4968945;28;20428;-75
2022/01/16 08:17:42;;;;;;;5.00;2.42;;;27.80;99.90;;;;;;4972559;28;20366;-74
2022/01/16 08:20:10;;;;;;;5.60;2.00;;;27.70;99.90;;;;;;4970106;28;20026;-75
2022/01/16 08:22:38;;;;;;;7.40;2.60;;;27.60;99.90;;;;;;4976144;28;20039;-74
2022/01/16 08:25:06;;;;;;;7.82;2.10;;;27.50;99.90;;;;;;4969924;28;20454;-74
2022/01/16 08:27:34;;;;;;;6.70;2.08;;;27.50;99.90;;;;;;4974176;28;20046;-74
2022/01/16 08:30:01;;;;;;;12.02;2.38;;;27.50;99.90;;;;;;4967569;28;20034;-74
2022/01/16 08:32:29;;;;;;;6.95;2.03;;;27.40;99.90;;;;;;4974889;28;20117;-74
2022/01/16 08:34:59;;;;;;;6.50;2.25;;;27.40;99.90;;;;;;4968532;28;20058;-74
2022/01/16 08:37:27;;;;;;;7.22;2.60;;;27.30;99.90;;;;;;4970824;28;20045;-75
2022/01/16 08:39:54;;;;;;;8.50;2.40;;;27.30;99.90;;;;;;4971446;28;20477;-74
2022/01/16 08:42:21;;;;;;;7.63;2.50;;;27.20;99.90;;;;;;4982866;28;20050;-74
2022/01/16 08:44:51;;;;;;;8.98;2.30;;;27.10;99.90;;;;;;4967962;28;20026;-73
2022/01/16 08:47:19;;;;;;;7.38;3.65;;;26.80;99.90;;;;;;4970252;28;20122;-74
2022/01/16 08:49:47;;;;;;;9.10;2.78;;;26.70;99.90;;;;;;4972269;28;20560;-73
2022/01/16 08:52:14;;;;;;;9.15;2.83;;;26.70;99.90;;;;;;4984461;28;20034;-73
2022/01/16 08:54:42;;;;;;;6.10;2.17;;;26.80;99.90;;;;;;4972209;28;20038;-73
2022/01/16 08:57:09;;;;;;;6.85;1.92;;;26.70;99.90;;;;;;4973590;28;20027;-73
2022/01/16 08:59:36;;;;;;;5.78;2.53;;;26.60;99.90;;;;;;4970522;28;20082;-73
2022/01/16 09:02:04;;;;;;;7.40;2.47;;;26.50;99.90;;;;;;4972682;28;20042;-73
2022/01/16 09:04:31;;;;;;;6.47;2.70;;;26.50;99.90;;;;;;4973656;28;20039;-74
2022/01/16 09:06:59;;;;;;;7.28;2.45;;;26.40;99.90;;;;;;4975124;28;20433;-75
2022/01/16 09:09:26;;;;;;;5.15;2.03;;;26.50;99.90;;;;;;4970042;28;20035;-75
2022/01/16 09:11:53;;;;;;;11.07;2.80;;;26.50;99.90;;;;;;4970489;28;20127;-75
2022/01/16 09:14:21;;;;;;;5.78;1.98;;;26.50;99.90;;;;;;4970215;28;20125;-75
2022/01/16 09:16:48;;;;;;;7.60;2.47;;;26.50;99.90;;;;;;4979833;28;20026;-75
2022/01/16 09:19:15;;;;;;;5.20;3.10;;;26.60;99.90;;;;;;4971549;28;20581;-76
2022/01/16 09:21:43;;;;;;;9.73;3.35;;;26.50;99.90;;;;;;4973650;28;20031;-75
2022/01/16 09:24:10;;;;;;;9.48;2.78;;;26.50;99.90;;;;;;4970637;28;20054;-75
2022/01/16 09:26:37;;;;;;;8.70;2.30;;;26.40;99.90;;;;;;4976450;28;20033;-75
2022/01/16 09:29:05;;;;;;;7.05;2.85;;;26.40;99.90;;;;;;4975220;28;20031;-75
2022/01/16 09:31:32;;;;;;;5.50;2.30;;;26.40;99.90;;;;;;4982797;28;20489;-76
2022/01/16 09:34:00;;;;;;;5.03;2.67;;;26.30;99.90;;;;;;4958985;28;20454;-76
2022/01/16 09:36:28;;;;;;;8.70;3.55;;;26.20;99.90;;;;;;4974751;28;20022;-76
2022/01/16 09:38:55;;;;;;;7.38;2.63;;;26.10;99.90;;;;;;4973728;28;20088;-76
2022/01/16 09:41:23;;;;;;;7.38;3.28;;;26.00;99.90;;;;;;4987248;28;20030;-76
2022/01/16 09:43:54;;;;;;;7.72;2.53;;;26.00;99.90;;;;;;4972439;28;20030;-76
2022/01/16 09:46:22;;;;;;;3.95;2.78;;;26.00;99.90;;;;;;4979018;28;20018;-76
2022/01/16 09:48:49;;;;;;;7.93;2.53;;;26.00;99.90;;;;;;4969699;28;20508;-76
2022/01/16 09:51:16;;;;;;;11.43;2.53;;;26.00;99.90;;;;;;4974947;28;20022;-76
2022/01/16 09:53:45;;;;;;;8.05;2.85;;;26.00;99.90;;;;;;4971810;28;20027;-77
2022/01/16 09:56:14;;;;;;;9.88;3.35;;;26.00;99.90;;;;;;4973794;28;20451;-76
2022/01/16 09:58:42;;;;;;;9.18;2.85;;;26.00;99.90;;;;;;4968057;28;20030;-75
2022/01/16 10:01:09;;;;;;;9.20;2.35;;;26.00;99.90;;;;;;4974793;28;20053;-74
2022/01/16 10:03:42;;;;;;;7.35;1.98;;;26.00;99.90;;;;;;4965202;28;20027;-77
2022/01/16 10:06:20;;;;;;;8.88;2.60;;;25.90;99.90;;;;;;4972578;28;20122;-76
2022/01/16 10:08:50;;;;;;;6.18;2.58;;;25.80;99.90;;;;;;4969381;28;20042;-75
2022/01/16 10:11:28;;;;;;;7.82;3.17;;;25.80;99.90;;;;;;4971635;28;20018;-75
2022/01/16 10:14:01;;;;;;;10.68;3.03;;;25.80;99.90;;;;;;4968285;28;20035;-75
2022/01/16 10:16:35;;;;;;;9.07;2.53;;;25.70;99.90;;;;;;4968590;28;20031;-74
2022/01/16 10:19:03;;;;;;;10.70;3.50;;;25.70;99.90;;;;;;4971877;28;20039;-74
2022/01/16 10:21:35;;;;;;;8.55;3.30;;;25.60;99.90;;;;;;4974655;28;20493;-74
2022/01/16 10:24:19;;;;;;;7.47;2.55;;;25.60;99.90;;;;;;4971612;28;20077;-74
2022/01/16 10:26:50;;;;;;;3.58;2.10;;;25.60;99.90;;;;;;4968055;28;20402;-74
2022/01/16 10:29:22;;;;;;;6.45;2.30;;;25.60;99.90;;;;;;4970191;28;20026;-74
2022/01/16 10:31:50;;;;;;;10.65;3.60;;;25.60;99.90;;;;;;4975693;28;20022;-75
2022/01/16 10:34:27;;;;;;;7.47;2.90;;;25.50;99.90;;;;;;4970373;28;20065;-76
2022/01/16 10:36:55;;;;;;;9.38;3.25;;;25.50;99.90;;;;;;4972211;28;20031;-76
2022/01/16 10:39:22;;;;;;;6.20;2.22;;;25.50;99.90;;;;;;4971222;28;20030;-75
2022/01/16 10:42:13;;;;;;;12.02;3.10;;;25.50;99.90;;;;;;4972332;28;20113;-76
2022/01/16 10:44:41;;;;;;;11.63;3.85;;;25.50;99.90;;;;;;4969217;28;20054;-76
2022/01/16 10:47:27;;;;;;;8.48;2.60;;;25.40;99.90;;;;;;4971987;28;20182;-76
2022/01/16 10:50:20;;;;;;;7.57;2.50;;;25.40;99.90;;;;;;4970790;28;20520;-75
2022/01/16 10:52:54;;;;;;;10.77;2.50;;;25.30;99.90;;;;;;4972300;28;20034;-75
2022/01/16 10:55:33;;;;;;;6.82;1.77;;;25.30;99.90;;;;;;4971552;28;20038;-75
2022/01/16 10:58:02;;;;;;;7.63;2.38;;;25.20;99.90;;;;;;4973659;28;20566;-75
2022/01/16 11:00:29;;;;;;;8.57;2.70;;;25.20;99.90;;;;;;4969833;28;20046;-75
2022/01/16 11:03:02;;;;;;;4.88;2.55;;;25.20;99.90;;;;;;4967958;28;20031;-75
2022/01/16 11:05:37;;;;;;;6.05;3.00;;;25.20;99.90;;;;;;4966925;28;20128;-75
2022/01/16 11:08:09;;;;;;;12.57;2.22;;;25.10;99.90;;;;;;4969874;28;20033;-74
2022/01/16 11:10:40;;;;;;;8.00;2.95;;;25.00;99.90;;;;;;4966727;28;20039;-77
2022/01/16 11:13:13;;;;;;;9.77;3.35;;;25.00;99.90;;;;;;4964809;28;20042;-76
2022/01/16 11:15:46;;;;;;;5.53;2.78;;;25.00;99.90;;;;;;4968232;28;20185;-75
2022/01/16 11:18:14;;;;;;;7.93;2.65;;;25.00;99.90;;;;;;4962878;28;20481;-74
2022/01/16 11:20:51;;;;;;;5.93;3.60;;;24.90;99.90;;;;;;4967308;28;20113;-75
2022/01/16 11:23:31;;;;;;;8.88;2.50;;;24.90;99.90;;;;;;4967433;28;20586;-75
2022/01/16 11:26:01;;;;;;;8.10;2.70;;;24.90;99.90;;;;;;4970489;28;20690;-75
2022/01/16 11:28:29;;;;;;;12.57;3.47;;;24.90;99.90;;;;;;4976049;28;20505;-75
2022/01/16 11:30:59;;;;;;;10.02;2.95;;;24.90;99.90;;;;;;4958420;28;20110;-75
2022/01/16 11:33:29;;;;;;;7.53;2.60;;;24.90;99.90;;;;;;4968865;28;20421;-74
2022/01/16 11:35:56;;;;;;;7.20;2.92;;;24.80;99.90;;;;;;4973690;28;20121;-75
2022/01/16 11:38:29;;;;;;;7.68;2.42;;;24.80;99.90;;;;;;5001208;28;20606;-76
2022/01/16 11:41:01;;;;;;;5.40;2.60;;;24.70;99.90;;;;;;4967357;28;20027;-76
2022/01/16 11:43:39;;;;;;;10.05;3.22;;;24.70;99.90;;;;;;4968067;28;20470;-75
2022/01/16 11:46:16;;;;;;;7.97;2.95;;;24.70;99.90;;;;;;4968433;28;20509;-75
2022/01/16 11:48:53;;;;;;;5.93;3.58;;;24.70;99.90;;;;;;4970124;28;20031;-76
2022/01/16 11:51:35;;;;;;;7.32;4.10;;;24.70;99.90;;;;;;4970034;28;20043;-75
2022/01/16 11:54:09;;;;;;;7.80;3.17;;;24.70;99.90;;;;;;4983657;28;20117;-76
2022/01/16 11:56:42;;;;;;;7.47;2.78;;;24.60;99.90;;;;;;4986849;28;20027;-76
2022/01/16 11:59:12;;;;;;;9.50;3.33;;;24.60;99.90;;;;;;4982110;28;20040;-76
2022/01/16 12:01:53;;;;;;;8.30;2.85;;;24.60;99.90;;;;;;4961296;28;20026;-76
2022/01/16 12:04:32;;;;;;;5.80;3.38;;;24.60;99.90;;;;;;4973204;28;20034;-75
2022/01/16 12:07:04;;;;;;;7.90;2.83;;;24.60;99.90;;;;;;4975003;28;20027;-75
2022/01/16 12:09:52;;;;;;;10.10;2.75;;;24.60;99.90;;;;;;4974292;28;20101;-75
2022/01/16 12:12:19;;;;;;;6.63;2.72;;;24.60;99.90;;;;;;4972930;28;20023;-76
2022/01/16 12:15:05;;;;;;;6.28;2.65;;;24.60;99.90;;;;;;4972551;28;20062;-76
2022/01/16 12:17:44;;;;;;;9.85;2.70;;;24.50;99.90;;;;;;4973155;28;20027;-75
2022/01/16 12:20:25;;;;;;;6.93;3.55;;;24.60;99.90;;;;;;4972933;28;20030;-75
2022/01/16 12:23:12;;;;;;;10.60;3.05;;;24.50;99.90;;;;;;4985737;28;20033;-75
2022/01/16 12:25:44;;;;;;;7.75;3.28;;;24.50;99.90;;;;;;4975284;28;20363;-76
2022/01/16 12:28:22;;;;;;;6.57;2.70;;;24.50;99.90;;;;;;4979490;28;20078;-76
2022/01/16 12:30:52;;;;;;;4.95;2.28;;;24.40;99.90;;;;;;4974968;28;20478;-76
2022/01/16 12:33:25;;;;;;;5.55;2.75;;;24.40;99.90;;;;;;4971787;28;20501;-75
2022/01/16 12:35:54;;;;;;;9.00;3.10;;;24.40;99.90;;;;;;4974319;28;20033;-77
2022/01/16 12:38:24;;;;;;;9.38;3.50;;;24.40;99.90;;;;;;4973675;28;20035;-75
2022/01/16 12:41:10;;;;;;;9.07;4.10;;;24.40;99.90;;;;;;4973655;28;20130;-77
2022/01/16 12:44:02;;;;;;;7.07;3.28;;;24.40;99.90;;;;;;4972985;28;20378;-74
2022/01/16 12:46:40;;;;;;;9.25;3.72;;;24.30;99.90;;;;;;4967595;28;20058;-74
2022/01/16 12:49:14;;;;;;;13.50;3.55;;;24.20;99.90;;;;;;4970396;28;20423;-74
2022/01/16 12:51:44;;;;;;;8.60;2.95;;;24.10;99.90;;;;;;4977704;28;20035;-75
2022/01/16 12:54:16;;;;;;;5.63;3.47;;;24.10;99.90;;;;;;4981040;28;20085;-76
2022/01/16 12:56:47;;;;;;;10.60;4.13;;;24.00;99.90;;;;;;4977989;28;20050;-75
2022/01/16 12:59:22;;;;;;;8.70;3.15;;;24.00;99.90;;;;;;4972019;28;20031;-76
2022/01/16 13:01:51;;;;;;;10.88;3.30;;;23.90;99.90;;;;;;4959431;28;20070;-75
2022/01/16 13:04:20;;;;;;;13.18;3.53;;;23.80;99.90;;;;;;4971763;28;20578;-76
2022/01/16 13:06:48;;;;;;;4.78;3.25;;;23.80;99.90;;;;;;4973202;28;20056;-76
2022/01/16 13:09:15;;;;;;;13.13;3.78;;;23.80;99.90;;;;;;4973775;28;20056;-74
2022/01/16 13:11:49;;;;;;;7.65;3.47;;;23.70;99.90;;;;;;4973647;28;20030;-74
2022/01/16 13:14:17;;;;;;;7.95;3.05;;;23.70;99.90;;;;;;4981373;28;20096;-76
2022/01/16 13:16:54;;;;;;;6.15;3.00;;;23.60;99.90;;;;;;4973707;28;20582;-76
2022/01/16 13:19:30;;;;;;;8.07;2.28;;;23.70;99.90;;;;;;4968544;28;20109;-76
2022/01/16 13:21:59;;;;;;;6.20;2.28;;;23.80;99.90;;;;;;4965881;28;20033;-77
2022/01/16 13:24:29;;;;;;;6.47;2.78;;;23.80;99.90;;;;;;4972147;28;20049;-76
2022/01/16 13:26:57;;;;;;;8.05;3.65;;;23.80;99.90;;;;;;4973127;28;20030;-76
2022/01/16 13:29:25;;;;;;;8.13;3.60;;;23.90;99.90;;;;;;4976967;28;20504;-75
2022/01/16 13:31:53;;;;;;;6.40;2.65;;;23.90;99.90;;;;;;4973419;28;20027;-74
2022/01/16 13:34:37;;;;;;;12.25;4.15;;;23.90;99.90;;;;;;4965532;28;20039;-73
2022/01/16 13:37:06;;;;;;;9.00;3.50;;;24.00;99.90;;;;;;4972200;28;20037;-73
2022/01/16 13:39:57;;;;;;;8.93;3.92;;;24.00;99.90;;;;;;4967595;28;20031;-73
2022/01/16 13:42:51;;;;;;;7.50;3.60;;;24.00;99.90;;;;;;4971505;28;20038;-75
2022/01/16 13:45:32;;;;;;;8.88;4.05;;;24.10;99.90;;;;;;4953803;28;20213;-77